sensor_id;sensor_type;location;lat;lon;timestamp;P1;durP1;ratioP1;P2;durP2;ratioP2
6598;SDS011;3335;43.198;27.918;2022-09-09T00:02:19;2.63;;;2.20;;
6598;SDS011;3335;43.198;27.918;2022-09-09T00:04:50;6.83;;;1.90;;
6598;SDS011;3335;43.198;27.918;2022-09-09T00:07:27;1.50;;;1.40;;
6598;SDS011;3335;43.198;27.918;2022-09-09T00:10:03;3.33;;;1.73;;
6598;SDS011;3335;43.198;27.918;2022-09-09T00:12:42;4.00;;;2.03;;
6598;SDS011;3335;43.198;27.918;2022-09-09T00:15:21;1.63;;;1.53;;
6598;SDS011;3335;43.198;27.918;2022-09-09T00:17:55;1.73;;;1.63;;
6598;SDS011;3335;43.198;27.918;2022-09-09T00:20:29;1.77;;;1.67;;
6598;SDS011;3335;43.198;27.918;2022-09-09T00:23:00;3.97;;;2.03;;
6598;SDS011;3335;43.198;27.918;2022-09-09T00:25:40;1.93;;;1.77;;
6598;SDS011;3335;43.198;27.918;2022-09-09T00:28:16;2.07;;;1.67;;
6598;SDS011;3335;43.198;27.918;2022-09-09T00:30:44;1.87;;;1.50;;
6598;SDS011;3335;43.198;27.918;2022-09-09T00:33:15;2.10;;;1.90;;
6598;SDS011;3335;43.198;27.918;2022-09-09T00:35:47;1.93;;;1.37;;
6598;SDS011;3335;43.198;27.918;2022-09-09T00:38:17;2.47;;;2.00;;
6598;SDS011;3335;43.198;27.918;2022-09-09T00:40:49;2.13;;;1.93;;
6598;SDS011;3335;43.198;27.918;2022-09-09T00:43:25;2.83;;;1.77;;
6598;SDS011;3335;43.198;27.918;2022-09-09T00:46:00;3.40;;;1.63;;
6598;SDS011;3335;43.198;27.918;2022-09-09T00:48:43;1.87;;;1.73;;
6598;SDS011;3335;43.198;27.918;2022-09-09T00:51:22;5.33;;;1.90;;
6598;SDS011;3335;43.198;27.918;2022-09-09T00:54:04;5.13;;;2.53;;
6598;SDS011;3335;43.198;27.918;2022-09-09T00:56:52;3.17;;;2.27;;
6598;SDS011;3335;43.198;27.918;2022-09-09T00:59:32;6.70;;;2.33;;
6598;SDS011;3335;43.198;27.918;2022-09-09T01:02:09;2.60;;;2.30;;
6598;SDS011;3335;43.198;27.918;2022-09-09T01:04:45;2.80;;;1.97;;
6598;SDS011;3335;43.198;27.918;2022-09-09T01:07:18;2.43;;;2.20;;
6598;SDS011;3335;43.198;27.918;2022-09-09T01:09:50;4.47;;;2.23;;
6598;SDS011;3335;43.198;27.918;2022-09-09T01:12:24;2.87;;;2.27;;
6598;SDS011;3335;43.198;27.918;2022-09-09T01:14:56;2.60;;;2.40;;
6598;SDS011;3335;43.198;27.918;2022-09-09T01:17:30;4.50;;;2.60;;
6598;SDS011;3335;43.198;27.918;2022-09-09T01:20:04;2.63;;;2.40;;
6598;SDS011;3335;43.198;27.918;2022-09-09T01:22:40;4.27;;;2.73;;
6598;SDS011;3335;43.198;27.918;2022-09-09T01:25:19;8.63;;;3.47;;
6598;SDS011;3335;43.198;27.918;2022-09-09T01:27:55;5.30;;;3.27;;
6598;SDS011;3335;43.198;27.918;2022-09-09T01:30:25;6.50;;;2.87;;
6598;SDS011;3335;43.198;27.918;2022-09-09T01:32:54;3.90;;;3.40;;
6598;SDS011;3335;43.198;27.918;2022-09-09T01:35:28;5.23;;;3.47;;
6598;SDS011;3335;43.198;27.918;2022-09-09T01:38:01;4.57;;;3.30;;
6598;SDS011;3335;43.198;27.918;2022-09-09T01:40:28;7.87;;;3.27;;
6598;SDS011;3335;43.198;27.918;2022-09-09T01:42:56;4.27;;;3.20;;
6598;SDS011;3335;43.198;27.918;2022-09-09T01:45:24;4.23;;;3.27;;
6598;SDS011;3335;43.198;27.918;2022-09-09T01:47:51;4.57;;;3.20;;
6598;SDS011;3335;43.198;27.918;2022-09-09T01:50:19;5.43;;;3.80;;
6598;SDS011;3335;43.198;27.918;2022-09-09T01:52:48;4.70;;;3.73;;
6598;SDS011;3335;43.198;27.918;2022-09-09T01:55:22;12.37;;;3.90;;
6598;SDS011;3335;43.198;27.918;2022-09-09T01:57:58;5.67;;;3.97;;
6598;SDS011;3335;43.198;27.918;2022-09-09T02:00:40;7.40;;;3.30;;
6598;SDS011;3335;43.198;27.918;2022-09-09T02:03:13;11.70;;;3.87;;
6598;SDS011;3335;43.198;27.918;2022-09-09T02:05:49;4.70;;;3.50;;
6598;SDS011;3335;43.198;27.918;2022-09-09T02:08:26;6.20;;;3.70;;
6598;SDS011;3335;43.198;27.918;2022-09-09T02:11:00;7.47;;;3.90;;
6598;SDS011;3335;43.198;27.918;2022-09-09T02:13:34;6.00;;;3.40;;
6598;SDS011;3335;43.198;27.918;2022-09-09T02:16:04;4.83;;;3.40;;
6598;SDS011;3335;43.198;27.918;2022-09-09T02:18:38;5.40;;;3.07;;
6598;SDS011;3335;43.198;27.918;2022-09-09T02:21:10;4.47;;;3.47;;
6598;SDS011;3335;43.198;27.918;2022-09-09T02:23:38;4.30;;;3.10;;
6598;SDS011;3335;43.198;27.918;2022-09-09T02:26:08;3.70;;;2.90;;
6598;SDS011;3335;43.198;27.918;2022-09-09T02:28:41;6.03;;;3.40;;
6598;SDS011;3335;43.198;27.918;2022-09-09T02:31:08;5.00;;;3.10;;
6598;SDS011;3335;43.198;27.918;2022-09-09T02:33:37;3.57;;;2.93;;
6598;SDS011;3335;43.198;27.918;2022-09-09T02:36:08;3.13;;;2.80;;
6598;SDS011;3335;43.198;27.918;2022-09-09T02:38:38;4.23;;;3.13;;
6598;SDS011;3335;43.198;27.918;2022-09-09T02:41:07;5.37;;;2.97;;
6598;SDS011;3335;43.198;27.918;2022-09-09T02:43:34;5.67;;;2.40;;
6598;SDS011;3335;43.198;27.918;2022-09-09T02:46:06;3.20;;;2.60;;
6598;SDS011;3335;43.198;27.918;2022-09-09T02:48:51;3.33;;;2.63;;
6598;SDS011;3335;43.198;27.918;2022-09-09T02:51:28;4.73;;;2.43;;
6598;SDS011;3335;43.198;27.918;2022-09-09T02:54:04;2.83;;;2.30;;
6598;SDS011;3335;43.198;27.918;2022-09-09T02:56:39;4.17;;;2.40;;
6598;SDS011;3335;43.198;27.918;2022-09-09T02:59:10;4.33;;;2.60;;
6598;SDS011;3335;43.198;27.918;2022-09-09T03:01:39;5.50;;;3.20;;
6598;SDS011;3335;43.198;27.918;2022-09-09T03:04:06;4.33;;;2.87;;
6598;SDS011;3335;43.198;27.918;2022-09-09T03:06:33;5.93;;;3.40;;
6598;SDS011;3335;43.198;27.918;2022-09-09T03:09:00;5.63;;;3.40;;
6598;SDS011;3335;43.198;27.918;2022-09-09T03:11:28;4.57;;;2.63;;
6598;SDS011;3335;43.198;27.918;2022-09-09T03:13:55;4.87;;;3.23;;
6598;SDS011;3335;43.198;27.918;2022-09-09T03:16:22;6.80;;;3.00;;
6598;SDS011;3335;43.198;27.918;2022-09-09T03:18:50;4.47;;;3.00;;
6598;SDS011;3335;43.198;27.918;2022-09-09T03:21:17;5.37;;;3.10;;
6598;SDS011;3335;43.198;27.918;2022-09-09T03:23:44;8.67;;;3.37;;
6598;SDS011;3335;43.198;27.918;2022-09-09T03:26:11;3.20;;;2.60;;
6598;SDS011;3335;43.198;27.918;2022-09-09T03:28:40;4.20;;;3.07;;
6598;SDS011;3335;43.198;27.918;2022-09-09T03:31:07;6.33;;;3.20;;
6598;SDS011;3335;43.198;27.918;2022-09-09T03:33:35;4.23;;;3.03;;
6598;SDS011;3335;43.198;27.918;2022-09-09T03:36:04;5.60;;;3.10;;
6598;SDS011;3335;43.198;27.918;2022-09-09T03:38:32;4.13;;;2.97;;
6598;SDS011;3335;43.198;27.918;2022-09-09T03:40:59;3.67;;;2.67;;
6598;SDS011;3335;43.198;27.918;2022-09-09T03:43:27;3.67;;;2.80;;
6598;SDS011;3335;43.198;27.918;2022-09-09T03:45:55;6.03;;;2.90;;
6598;SDS011;3335;43.198;27.918;2022-09-09T03:48:23;6.00;;;2.83;;
6598;SDS011;3335;43.198;27.918;2022-09-09T03:50:51;2.73;;;2.30;;
6598;SDS011;3335;43.198;27.918;2022-09-09T03:53:23;4.53;;;2.80;;
6598;SDS011;3335;43.198;27.918;2022-09-09T03:55:51;9.03;;;3.00;;
6598;SDS011;3335;43.198;27.918;2022-09-09T03:58:19;9.23;;;3.03;;
6598;SDS011;3335;43.198;27.918;2022-09-09T04:00:58;4.13;;;3.00;;
6598;SDS011;3335;43.198;27.918;2022-09-09T04:03:27;4.47;;;2.73;;
6598;SDS011;3335;43.198;27.918;2022-09-09T04:05:55;7.30;;;2.93;;
6598;SDS011;3335;43.198;27.918;2022-09-09T04:08:24;3.47;;;2.40;;
6598;SDS011;3335;43.198;27.918;2022-09-09T04:10:52;5.90;;;2.70;;
6598;SDS011;3335;43.198;27.918;2022-09-09T04:13:24;5.40;;;2.87;;
6598;SDS011;3335;43.198;27.918;2022-09-09T04:15:52;3.53;;;2.60;;
6598;SDS011;3335;43.198;27.918;2022-09-09T04:18:19;6.13;;;3.90;;
6598;SDS011;3335;43.198;27.918;2022-09-09T04:20:46;6.30;;;3.00;;
6598;SDS011;3335;43.198;27.918;2022-09-09T04:23:14;6.30;;;3.27;;
6598;SDS011;3335;43.198;27.918;2022-09-09T04:25:45;10.40;;;4.33;;
6598;SDS011;3335;43.198;27.918;2022-09-09T04:28:12;8.60;;;3.43;;
6598;SDS011;3335;43.198;27.918;2022-09-09T04:30:39;4.03;;;2.90;;
6598;SDS011;3335;43.198;27.918;2022-09-09T04:33:06;10.87;;;3.33;;
6598;SDS011;3335;43.198;27.918;2022-09-09T04:35:34;6.33;;;3.13;;
6598;SDS011;3335;43.198;27.918;2022-09-09T04:38:01;6.47;;;3.23;;
6598;SDS011;3335;43.198;27.918;2022-09-09T04:40:29;6.93;;;4.43;;
6598;SDS011;3335;43.198;27.918;2022-09-09T04:42:58;12.63;;;5.43;;
6598;SDS011;3335;43.198;27.918;2022-09-09T04:45:26;6.83;;;4.63;;
6598;SDS011;3335;43.198;27.918;2022-09-09T04:47:53;13.37;;;4.70;;
6598;SDS011;3335;43.198;27.918;2022-09-09T04:50:20;11.23;;;4.27;;
6598;SDS011;3335;43.198;27.918;2022-09-09T04:52:47;7.43;;;2.97;;
6598;SDS011;3335;43.198;27.918;2022-09-09T04:55:14;5.43;;;3.00;;
6598;SDS011;3335;43.198;27.918;2022-09-09T04:57:41;4.07;;;3.00;;
6598;SDS011;3335;43.198;27.918;2022-09-09T05:00:10;3.67;;;2.63;;
6598;SDS011;3335;43.198;27.918;2022-09-09T05:02:38;4.70;;;3.30;;
6598;SDS011;3335;43.198;27.918;2022-09-09T05:05:07;2.70;;;2.30;;
6598;SDS011;3335;43.198;27.918;2022-09-09T05:07:36;6.47;;;3.30;;
6598;SDS011;3335;43.198;27.918;2022-09-09T05:10:03;2.03;;;1.73;;
6598;SDS011;3335;43.198;27.918;2022-09-09T05:12:31;4.57;;;2.00;;
6598;SDS011;3335;43.198;27.918;2022-09-09T05:14:57;6.03;;;1.67;;
6598;SDS011;3335;43.198;27.918;2022-09-09T05:17:26;1.80;;;1.63;;
6598;SDS011;3335;43.198;27.918;2022-09-09T05:19:53;3.43;;;1.80;;
6598;SDS011;3335;43.198;27.918;2022-09-09T05:22:20;5.13;;;2.00;;
6598;SDS011;3335;43.198;27.918;2022-09-09T05:24:48;3.17;;;1.57;;
6598;SDS011;3335;43.198;27.918;2022-09-09T05:27:16;3.27;;;1.70;;
6598;SDS011;3335;43.198;27.918;2022-09-09T05:29:43;4.03;;;1.60;;
6598;SDS011;3335;43.198;27.918;2022-09-09T05:32:10;3.20;;;1.87;;
6598;SDS011;3335;43.198;27.918;2022-09-09T05:34:38;3.27;;;1.70;;
6598;SDS011;3335;43.198;27.918;2022-09-09T05:37:05;3.10;;;1.80;;
6598;SDS011;3335;43.198;27.918;2022-09-09T05:39:32;5.07;;;1.70;;
6598;SDS011;3335;43.198;27.918;2022-09-09T05:42:01;1.70;;;1.60;;
6598;SDS011;3335;43.198;27.918;2022-09-09T05:44:30;2.30;;;1.87;;
6598;SDS011;3335;43.198;27.918;2022-09-09T05:46:57;3.77;;;1.70;;
6598;SDS011;3335;43.198;27.918;2022-09-09T05:49:24;5.10;;;1.97;;
6598;SDS011;3335;43.198;27.918;2022-09-09T05:51:52;2.13;;;1.70;;
6598;SDS011;3335;43.198;27.918;2022-09-09T05:54:19;2.00;;;1.80;;
6598;SDS011;3335;43.198;27.918;2022-09-09T05:56:46;6.70;;;1.77;;
6598;SDS011;3335;43.198;27.918;2022-09-09T05:59:15;3.23;;;1.80;;
6598;SDS011;3335;43.198;27.918;2022-09-09T06:01:43;2.10;;;1.90;;
6598;SDS011;3335;43.198;27.918;2022-09-09T06:04:10;3.60;;;1.60;;
6598;SDS011;3335;43.198;27.918;2022-09-09T06:06:37;2.20;;;2.00;;
6598;SDS011;3335;43.198;27.918;2022-09-09T06:09:07;2.87;;;1.90;;
6598;SDS011;3335;43.198;27.918;2022-09-09T06:11:36;1.60;;;1.50;;
6598;SDS011;3335;43.198;27.918;2022-09-09T06:14:04;3.47;;;1.53;;
6598;SDS011;3335;43.198;27.918;2022-09-09T06:16:31;3.80;;;1.33;;
6598;SDS011;3335;43.198;27.918;2022-09-09T06:19:00;3.07;;;1.80;;
6598;SDS011;3335;43.198;27.918;2022-09-09T06:21:28;2.17;;;1.40;;
6598;SDS011;3335;43.198;27.918;2022-09-09T06:23:58;1.23;;;1.13;;
6598;SDS011;3335;43.198;27.918;2022-09-09T06:26:27;1.90;;;1.67;;
6598;SDS011;3335;43.198;27.918;2022-09-09T06:28:55;2.27;;;1.77;;
6598;SDS011;3335;43.198;27.918;2022-09-09T06:31:24;6.00;;;1.70;;
6598;SDS011;3335;43.198;27.918;2022-09-09T06:33:52;1.57;;;1.47;;
6598;SDS011;3335;43.198;27.918;2022-09-09T06:36:20;2.43;;;1.60;;
6598;SDS011;3335;43.198;27.918;2022-09-09T06:38:49;4.37;;;1.90;;
6598;SDS011;3335;43.198;27.918;2022-09-09T06:41:16;1.93;;;1.70;;
6598;SDS011;3335;43.198;27.918;2022-09-09T06:43:46;2.60;;;1.67;;
6598;SDS011;3335;43.198;27.918;2022-09-09T06:46:14;3.60;;;1.80;;
6598;SDS011;3335;43.198;27.918;2022-09-09T06:48:42;4.53;;;1.50;;
6598;SDS011;3335;43.198;27.918;2022-09-09T06:51:11;5.27;;;1.70;;
6598;SDS011;3335;43.198;27.918;2022-09-09T06:53:40;2.20;;;1.70;;
6598;SDS011;3335;43.198;27.918;2022-09-09T06:56:19;3.07;;;1.40;;
6598;SDS011;3335;43.198;27.918;2022-09-09T06:58:49;4.03;;;1.40;;
6598;SDS011;3335;43.198;27.918;2022-09-09T07:01:18;3.13;;;1.60;;
6598;SDS011;3335;43.198;27.918;2022-09-09T07:03:46;1.87;;;1.60;;
6598;SDS011;3335;43.198;27.918;2022-09-09T07:06:15;4.27;;;1.60;;
6598;SDS011;3335;43.198;27.918;2022-09-09T07:08:47;3.37;;;1.60;;
6598;SDS011;3335;43.198;27.918;2022-09-09T07:11:15;1.83;;;1.73;;
6598;SDS011;3335;43.198;27.918;2022-09-09T07:13:42;2.27;;;1.80;;
6598;SDS011;3335;43.198;27.918;2022-09-09T07:16:11;2.93;;;1.50;;
6598;SDS011;3335;43.198;27.918;2022-09-09T07:18:39;3.47;;;2.20;;
6598;SDS011;3335;43.198;27.918;2022-09-09T07:21:07;2.67;;;1.73;;
6598;SDS011;3335;43.198;27.918;2022-09-09T07:23:37;3.67;;;1.40;;
6598;SDS011;3335;43.198;27.918;2022-09-09T07:26:07;3.33;;;1.87;;
6598;SDS011;3335;43.198;27.918;2022-09-09T07:28:35;11.37;;;1.60;;
6598;SDS011;3335;43.198;27.918;2022-09-09T07:31:02;4.27;;;1.60;;
6598;SDS011;3335;43.198;27.918;2022-09-09T07:33:31;6.03;;;2.00;;
6598;SDS011;3335;43.198;27.918;2022-09-09T07:36:03;1.60;;;1.50;;
6598;SDS011;3335;43.198;27.918;2022-09-09T07:38:32;5.47;;;1.40;;
6598;SDS011;3335;43.198;27.918;2022-09-09T07:41:04;2.00;;;1.60;;
6598;SDS011;3335;43.198;27.918;2022-09-09T07:43:33;3.63;;;1.43;;
6598;SDS011;3335;43.198;27.918;2022-09-09T07:46:00;2.13;;;1.70;;
6598;SDS011;3335;43.198;27.918;2022-09-09T07:48:27;2.27;;;1.50;;
6598;SDS011;3335;43.198;27.918;2022-09-09T07:51:04;1.43;;;1.33;;
6598;SDS011;3335;43.198;27.918;2022-09-09T07:53:33;1.33;;;0.90;;
6598;SDS011;3335;43.198;27.918;2022-09-09T07:56:04;2.53;;;1.40;;
6598;SDS011;3335;43.198;27.918;2022-09-09T07:58:34;2.27;;;1.43;;
6598;SDS011;3335;43.198;27.918;2022-09-09T08:01:05;1.93;;;1.30;;
6598;SDS011;3335;43.198;27.918;2022-09-09T08:03:34;1.90;;;1.30;;
6598;SDS011;3335;43.198;27.918;2022-09-09T08:06:02;2.00;;;1.23;;
6598;SDS011;3335;43.198;27.918;2022-09-09T08:08:31;1.90;;;1.47;;
6598;SDS011;3335;43.198;27.918;2022-09-09T08:11:02;1.60;;;1.50;;
6598;SDS011;3335;43.198;27.918;2022-09-09T08:13:32;3.17;;;1.57;;
6598;SDS011;3335;43.198;27.918;2022-09-09T08:16:03;2.33;;;1.30;;
6598;SDS011;3335;43.198;27.918;2022-09-09T08:18:32;1.70;;;1.23;;
6598;SDS011;3335;43.198;27.918;2022-09-09T08:21:05;1.10;;;1.00;;
6598;SDS011;3335;43.198;27.918;2022-09-09T08:23:38;1.30;;;1.20;;
6598;SDS011;3335;43.198;27.918;2022-09-09T08:26:07;1.97;;;1.40;;
6598;SDS011;3335;43.198;27.918;2022-09-09T08:28:36;2.30;;;1.33;;
6598;SDS011;3335;43.198;27.918;2022-09-09T08:31:07;3.00;;;1.40;;
6598;SDS011;3335;43.198;27.918;2022-09-09T08:33:35;4.93;;;1.90;;
6598;SDS011;3335;43.198;27.918;2022-09-09T08:36:04;3.87;;;1.37;;
6598;SDS011;3335;43.198;27.918;2022-09-09T08:38:34;2.30;;;1.30;;
6598;SDS011;3335;43.198;27.918;2022-09-09T08:44:03;2.27;;;1.47;;
6598;SDS011;3335;43.198;27.918;2022-09-09T08:46:36;2.20;;;1.10;;
6598;SDS011;3335;43.198;27.918;2022-09-09T08:49:15;8.50;;;1.43;;
6598;SDS011;3335;43.198;27.918;2022-09-09T08:51:52;1.50;;;1.40;;
6598;SDS011;3335;43.198;27.918;2022-09-09T08:54:22;3.00;;;1.20;;
6598;SDS011;3335;43.198;27.918;2022-09-09T08:56:52;2.43;;;1.67;;
6598;SDS011;3335;43.198;27.918;2022-09-09T08:59:19;2.77;;;1.50;;
6598;SDS011;3335;43.198;27.918;2022-09-09T09:01:51;3.57;;;1.30;;
6598;SDS011;3335;43.198;27.918;2022-09-09T09:04:38;1.63;;;1.50;;
6598;SDS011;3335;43.198;27.918;2022-09-09T09:07:18;6.93;;;2.30;;
6598;SDS011;3335;43.198;27.918;2022-09-09T09:09:57;9.30;;;2.30;;
6598;SDS011;3335;43.198;27.918;2022-09-09T09:12:32;3.60;;;2.13;;
6598;SDS011;3335;43.198;27.918;2022-09-09T09:15:05;2.50;;;1.50;;
6598;SDS011;3335;43.198;27.918;2022-09-09T09:17:42;4.47;;;1.87;;
6598;SDS011;3335;43.198;27.918;2022-09-09T09:20:11;3.27;;;1.33;;
6598;SDS011;3335;43.198;27.918;2022-09-09T09:22:43;3.13;;;1.43;;
6598;SDS011;3335;43.198;27.918;2022-09-09T09:25:16;4.03;;;1.30;;
6598;SDS011;3335;43.198;27.918;2022-09-09T09:27:47;3.47;;;1.70;;
6598;SDS011;3335;43.198;27.918;2022-09-09T09:30:20;1.73;;;1.10;;
6598;SDS011;3335;43.198;27.918;2022-09-09T09:32:50;4.17;;;1.67;;
6598;SDS011;3335;43.198;27.918;2022-09-09T09:35:20;2.10;;;1.43;;
6598;SDS011;3335;43.198;27.918;2022-09-09T09:37:48;2.83;;;1.40;;
6598;SDS011;3335;43.198;27.918;2022-09-09T09:40:16;1.60;;;1.47;;
6598;SDS011;3335;43.198;27.918;2022-09-09T09:42:48;3.43;;;1.40;;
6598;SDS011;3335;43.198;27.918;2022-09-09T09:45:20;2.20;;;1.30;;
6598;SDS011;3335;43.198;27.918;2022-09-09T09:47:58;2.50;;;1.53;;
6598;SDS011;3335;43.198;27.918;2022-09-09T09:50:27;2.77;;;1.30;;
6598;SDS011;3335;43.198;27.918;2022-09-09T09:52:56;2.63;;;1.43;;
6598;SDS011;3335;43.198;27.918;2022-09-09T09:55:24;3.47;;;1.20;;
6598;SDS011;3335;43.198;27.918;2022-09-09T09:57:52;3.40;;;1.50;;
6598;SDS011;3335;43.198;27.918;2022-09-09T10:00:20;4.83;;;1.50;;
6598;SDS011;3335;43.198;27.918;2022-09-09T10:02:49;1.93;;;1.30;;
6598;SDS011;3335;43.198;27.918;2022-09-09T10:05:18;3.10;;;2.00;;
6598;SDS011;3335;43.198;27.918;2022-09-09T10:07:47;3.87;;;1.77;;
6598;SDS011;3335;43.198;27.918;2022-09-09T10:10:33;2.60;;;1.60;;
6598;SDS011;3335;43.198;27.918;2022-09-09T10:13:10;3.87;;;1.73;;
6598;SDS011;3335;43.198;27.918;2022-09-09T10:15:44;3.80;;;1.80;;
6598;SDS011;3335;43.198;27.918;2022-09-09T10:18:22;21.77;;;10.00;;
6598;SDS011;3335;43.198;27.918;2022-09-09T10:21:03;4.03;;;2.47;;
6598;SDS011;3335;43.198;27.918;2022-09-09T10:23:49;4.17;;;2.00;;
6598;SDS011;3335;43.198;27.918;2022-09-09T10:26:32;2.97;;;1.70;;
6598;SDS011;3335;43.198;27.918;2022-09-09T10:29:24;6.13;;;2.07;;
6598;SDS011;3335;43.198;27.918;2022-09-09T10:32:03;3.60;;;1.80;;
6598;SDS011;3335;43.198;27.918;2022-09-09T10:34:45;3.67;;;1.70;;
6598;SDS011;3335;43.198;27.918;2022-09-09T10:37:25;4.17;;;2.17;;
6598;SDS011;3335;43.198;27.918;2022-09-09T10:40:12;2.70;;;1.60;;
6598;SDS011;3335;43.198;27.918;2022-09-09T10:42:49;4.43;;;2.40;;
6598;SDS011;3335;43.198;27.918;2022-09-09T10:45:17;4.50;;;1.40;;
6598;SDS011;3335;43.198;27.918;2022-09-09T10:50:48;3.53;;;1.30;;
6598;SDS011;3335;43.198;27.918;2022-09-09T10:53:22;2.93;;;1.17;;
6598;SDS011;3335;43.198;27.918;2022-09-09T10:56:03;2.93;;;1.43;;
6598;SDS011;3335;43.198;27.918;2022-09-09T10:58:35;2.63;;;1.50;;
6598;SDS011;3335;43.198;27.918;2022-09-09T11:01:10;3.07;;;2.00;;
6598;SDS011;3335;43.198;27.918;2022-09-09T11:03:44;5.43;;;1.70;;
6598;SDS011;3335;43.198;27.918;2022-09-09T11:06:16;4.53;;;1.67;;
6598;SDS011;3335;43.198;27.918;2022-09-09T11:08:48;1.80;;;1.40;;
6598;SDS011;3335;43.198;27.918;2022-09-09T11:11:18;3.03;;;1.90;;
6598;SDS011;3335;43.198;27.918;2022-09-09T11:13:49;6.23;;;1.37;;
6598;SDS011;3335;43.198;27.918;2022-09-09T11:16:23;1.80;;;1.50;;
6598;SDS011;3335;43.198;27.918;2022-09-09T11:18:55;2.33;;;1.43;;
6598;SDS011;3335;43.198;27.918;2022-09-09T11:21:27;1.93;;;1.77;;
6598;SDS011;3335;43.198;27.918;2022-09-09T11:23:58;2.70;;;1.53;;
6598;SDS011;3335;43.198;27.918;2022-09-09T11:26:32;5.13;;;2.00;;
6598;SDS011;3335;43.198;27.918;2022-09-09T11:29:18;3.57;;;2.23;;
6598;SDS011;3335;43.198;27.918;2022-09-09T11:32:03;4.00;;;2.33;;
6598;SDS011;3335;43.198;27.918;2022-09-09T11:34:47;2.47;;;1.60;;
6598;SDS011;3335;43.198;27.918;2022-09-09T11:40:19;3.20;;;1.70;;
6598;SDS011;3335;43.198;27.918;2022-09-09T11:43:01;2.47;;;1.60;;
6598;SDS011;3335;43.198;27.918;2022-09-09T11:45:31;3.33;;;1.50;;
6598;SDS011;3335;43.198;27.918;2022-09-09T11:48:00;6.90;;;2.00;;
6598;SDS011;3335;43.198;27.918;2022-09-09T11:50:30;5.77;;;1.60;;
6598;SDS011;3335;43.198;27.918;2022-09-09T11:53:04;8.43;;;2.30;;
6598;SDS011;3335;43.198;27.918;2022-09-09T11:55:42;1.87;;;1.50;;
6598;SDS011;3335;43.198;27.918;2022-09-09T11:58:16;4.83;;;2.10;;
6598;SDS011;3335;43.198;27.918;2022-09-09T12:00:46;2.07;;;1.53;;
6598;SDS011;3335;43.198;27.918;2022-09-09T12:03:39;39.37;;;3.77;;
6598;SDS011;3335;43.198;27.918;2022-09-09T12:06:09;2.33;;;1.30;;
6598;SDS011;3335;43.198;27.918;2022-09-09T12:08:41;7.80;;;1.77;;
6598;SDS011;3335;43.198;27.918;2022-09-09T12:11:11;1.30;;;1.20;;
6598;SDS011;3335;43.198;27.918;2022-09-09T12:13:39;5.77;;;1.97;;
6598;SDS011;3335;43.198;27.918;2022-09-09T12:16:27;2.47;;;1.70;;
6598;SDS011;3335;43.198;27.918;2022-09-09T12:19:05;3.83;;;1.93;;
6598;SDS011;3335;43.198;27.918;2022-09-09T12:21:41;3.37;;;1.40;;
6598;SDS011;3335;43.198;27.918;2022-09-09T12:24:15;33.93;;;3.00;;
6598;SDS011;3335;43.198;27.918;2022-09-09T12:26:51;2.83;;;1.40;;
6598;SDS011;3335;43.198;27.918;2022-09-09T12:29:26;6.53;;;1.60;;
6598;SDS011;3335;43.198;27.918;2022-09-09T12:32:02;3.83;;;1.30;;
6598;SDS011;3335;43.198;27.918;2022-09-09T12:34:35;4.73;;;1.93;;
6598;SDS011;3335;43.198;27.918;2022-09-09T12:37:06;7.40;;;1.40;;
6598;SDS011;3335;43.198;27.918;2022-09-09T12:39:44;6.17;;;2.00;;
6598;SDS011;3335;43.198;27.918;2022-09-09T12:42:18;2.10;;;1.67;;
6598;SDS011;3335;43.198;27.918;2022-09-09T12:44:55;3.83;;;2.17;;
6598;SDS011;3335;43.198;27.918;2022-09-09T12:47:24;2.43;;;1.23;;
6598;SDS011;3335;43.198;27.918;2022-09-09T12:49:55;4.07;;;1.20;;
6598;SDS011;3335;43.198;27.918;2022-09-09T12:52:24;2.07;;;1.07;;
6598;SDS011;3335;43.198;27.918;2022-09-09T12:54:56;2.80;;;1.47;;
6598;SDS011;3335;43.198;27.918;2022-09-09T12:57:25;3.47;;;1.20;;
6598;SDS011;3335;43.198;27.918;2022-09-09T13:00:05;1.33;;;1.10;;
6598;SDS011;3335;43.198;27.918;2022-09-09T13:02:44;5.53;;;1.47;;
6598;SDS011;3335;43.198;27.918;2022-09-09T13:05:14;2.47;;;1.30;;
6598;SDS011;3335;43.198;27.918;2022-09-09T13:07:43;4.13;;;1.60;;
6598;SDS011;3335;43.198;27.918;2022-09-09T13:10:11;4.50;;;1.40;;
6598;SDS011;3335;43.198;27.918;2022-09-09T13:12:38;1.40;;;1.27;;
6598;SDS011;3335;43.198;27.918;2022-09-09T13:15:12;3.43;;;1.53;;
6598;SDS011;3335;43.198;27.918;2022-09-09T13:17:49;2.00;;;1.30;;
6598;SDS011;3335;43.198;27.918;2022-09-09T13:20:19;2.53;;;1.30;;
6598;SDS011;3335;43.198;27.918;2022-09-09T13:22:47;4.40;;;1.40;;
6598;SDS011;3335;43.198;27.918;2022-09-09T13:25:20;1.93;;;1.30;;
6598;SDS011;3335;43.198;27.918;2022-09-09T13:27:51;3.97;;;1.60;;
6598;SDS011;3335;43.198;27.918;2022-09-09T13:30:23;2.77;;;1.53;;
6598;SDS011;3335;43.198;27.918;2022-09-09T13:33:03;2.33;;;1.60;;
6598;SDS011;3335;43.198;27.918;2022-09-09T13:35:32;3.50;;;1.70;;
6598;SDS011;3335;43.198;27.918;2022-09-09T13:38:06;1.93;;;1.73;;
6598;SDS011;3335;43.198;27.918;2022-09-09T13:40:34;2.27;;;1.80;;
6598;SDS011;3335;43.198;27.918;2022-09-09T13:43:02;4.60;;;1.93;;
6598;SDS011;3335;43.198;27.918;2022-09-09T13:45:31;4.20;;;1.97;;
6598;SDS011;3335;43.198;27.918;2022-09-09T13:48:07;2.60;;;1.90;;
6598;SDS011;3335;43.198;27.918;2022-09-09T13:50:36;3.00;;;2.30;;
6598;SDS011;3335;43.198;27.918;2022-09-09T13:53:03;5.73;;;2.27;;
6598;SDS011;3335;43.198;27.918;2022-09-09T13:55:30;8.50;;;2.50;;
6598;SDS011;3335;43.198;27.918;2022-09-09T13:57:57;7.33;;;2.63;;
6598;SDS011;3335;43.198;27.918;2022-09-09T14:00:26;4.23;;;2.23;;
6598;SDS011;3335;43.198;27.918;2022-09-09T14:02:56;6.70;;;3.10;;
6598;SDS011;3335;43.198;27.918;2022-09-09T14:05:26;2.50;;;2.03;;
6598;SDS011;3335;43.198;27.918;2022-09-09T14:07:53;3.20;;;2.70;;
6598;SDS011;3335;43.198;27.918;2022-09-09T14:10:20;7.27;;;3.00;;
6598;SDS011;3335;43.198;27.918;2022-09-09T14:12:47;4.93;;;2.27;;
6598;SDS011;3335;43.198;27.918;2022-09-09T14:15:14;9.17;;;2.70;;
6598;SDS011;3335;43.198;27.918;2022-09-09T14:17:41;7.07;;;2.80;;
6598;SDS011;3335;43.198;27.918;2022-09-09T14:20:10;6.67;;;2.90;;
6598;SDS011;3335;43.198;27.918;2022-09-09T14:22:40;2.70;;;2.50;;
6598;SDS011;3335;43.198;27.918;2022-09-09T14:25:07;4.50;;;2.33;;
6598;SDS011;3335;43.198;27.918;2022-09-09T14:27:34;4.37;;;2.30;;
6598;SDS011;3335;43.198;27.918;2022-09-09T14:30:02;5.67;;;2.83;;
6598;SDS011;3335;43.198;27.918;2022-09-09T14:32:29;5.13;;;2.40;;
6598;SDS011;3335;43.198;27.918;2022-09-09T14:34:56;6.23;;;2.43;;
6598;SDS011;3335;43.198;27.918;2022-09-09T14:37:24;6.20;;;2.70;;
6598;SDS011;3335;43.198;27.918;2022-09-09T14:39:51;3.17;;;2.13;;
6598;SDS011;3335;43.198;27.918;2022-09-09T14:42:19;4.27;;;2.47;;
6598;SDS011;3335;43.198;27.918;2022-09-09T14:44:46;2.53;;;2.33;;
6598;SDS011;3335;43.198;27.918;2022-09-09T14:47:14;6.43;;;2.30;;
6598;SDS011;3335;43.198;27.918;2022-09-09T14:49:40;6.13;;;2.30;;
6598;SDS011;3335;43.198;27.918;2022-09-09T14:52:08;2.60;;;2.40;;
6598;SDS011;3335;43.198;27.918;2022-09-09T14:54:36;5.68;;;2.90;;
6598;SDS011;3335;43.198;27.918;2022-09-09T14:57:03;6.10;;;2.85;;
6598;SDS011;3335;43.198;27.918;2022-09-09T14:59:30;3.42;;;2.00;;
6598;SDS011;3335;43.198;27.918;2022-09-09T15:01:57;6.75;;;2.50;;
6598;SDS011;3335;43.198;27.918;2022-09-09T15:04:25;5.67;;;2.60;;
6598;SDS011;3335;43.198;27.918;2022-09-09T15:06:52;3.20;;;2.03;;
6598;SDS011;3335;43.198;27.918;2022-09-09T15:09:19;3.90;;;2.30;;
6598;SDS011;3335;43.198;27.918;2022-09-09T15:11:47;2.47;;;2.27;;
6598;SDS011;3335;43.198;27.918;2022-09-09T15:14:15;2.30;;;2.10;;
6598;SDS011;3335;43.198;27.918;2022-09-09T15:16:42;7.63;;;2.80;;
6598;SDS011;3335;43.198;27.918;2022-09-09T15:19:09;6.63;;;3.40;;
6598;SDS011;3335;43.198;27.918;2022-09-09T15:21:36;8.80;;;3.63;;
6598;SDS011;3335;43.198;27.918;2022-09-09T15:24:04;4.20;;;3.20;;
6598;SDS011;3335;43.198;27.918;2022-09-09T15:26:33;4.63;;;3.40;;
6598;SDS011;3335;43.198;27.918;2022-09-09T15:29:05;7.53;;;4.70;;
6598;SDS011;3335;43.198;27.918;2022-09-09T15:31:32;7.07;;;3.60;;
6598;SDS011;3335;43.198;27.918;2022-09-09T15:34:00;6.60;;;3.33;;